Minnetonka Mills, Minnesota
Current Conditions -  °F | °C
As of 12:53 PM on Saturday 25 Oct 2014 (Local Time) from KFCM Reporting Station
Clear Clear  
Wind Chill: 16°   Ceiling: Unl
Heat Index: 16°   Visibility: 10mi
Dew Point:   Wind: 14mph
Humidity: 34%   Direction: 300°WNW
Pressure: 30.05"   Gusts: NA
Location:  44.9144°N, 93.4174°W
Report Text: KFCM 251753Z 30012KT 10SM CLR 16/00 A3005 RMK AO2 SLP178 T01610000 10161 20111 50003
Loading
Personal Weather Stations






























Interactive Weather Map
Tropical Storm Tracking
New forecast layout! Learn more

10-Day Weather Forecast

Advertisements
Track Severe Weather on mobile